Time;durP1;ratioP1;P1;durP2;ratioP2;P2;SDS_P1;SDS_P2;PMS_P1;PMS_P2;Temp;Humidity;BMP_temperature;BMP_pressure;BME280_temperature;BME280_humidity;BME280_pressure;Samples;Min_cycle;Max_cycle;Signal;HPM_P1;HPM_P2
2021/12/08 00:00:07;;;;;;;6.28;3.00;;;;;;;-1.07;77.40;95059.91;5088145;28;20052;-73
2021/12/08 00:02:35;;;;;;;6.40;3.05;;;;;;;-1.12;77.73;95041.25;5088742;28;20073;-73
2021/12/08 00:05:02;;;;;;;5.28;2.95;;;;;;;-1.15;77.73;95036.44;5087386;28;20779;-73
2021/12/08 00:07:28;;;;;;;8.35;3.80;;;;;;;-1.18;77.75;95032.47;5088105;28;20048;-73
2021/12/08 00:10:04;;;;;;;6.05;3.28;;;;;;;-1.22;77.98;95033.28;5088288;28;20059;-73
2021/12/08 00:15:15;;;;;;;7.18;4.03;;;;;;;-1.27;78.18;95027.97;5067710;28;20420;-73
2021/12/08 00:17:43;;;;;;;5.45;3.80;;;;;;;-1.29;78.30;95019.44;5067996;28;20118;-74
2021/12/08 00:20:10;;;;;;;7.53;4.15;;;;;;;-1.32;78.53;95016.22;5067446;28;20499;-73
2021/12/08 00:22:37;;;;;;;7.05;3.67;;;;;;;-1.32;78.27;95013.56;5067702;28;20499;-73
2021/12/08 00:25:04;;;;;;;6.07;3.47;;;;;;;-1.30;78.19;95013.31;5067518;28;20059;-73
2021/12/08 00:27:32;;;;;;;8.05;3.88;;;;;;;-1.29;78.06;95019.44;5067974;28;20048;-73
2021/12/08 00:29:58;;;;;;;5.68;3.35;;;;;;;-1.29;78.12;95035.47;5067990;28;20794;-73
2021/12/08 00:32:29;;;;;;;7.65;4.18;;;;;;;-1.30;77.98;95044.56;5067428;28;20048;-73
2021/12/08 00:34:57;;;;;;;7.25;4.32;;;;;;;-1.30;77.88;95032.00;5067663;28;20041;-73
2021/12/08 00:37:24;;;;;;;6.57;3.95;;;;;;;-1.28;77.65;95026.38;5067152;28;20052;-74
2021/12/08 00:39:52;;;;;;;5.55;3.42;;;;;;;-1.30;77.54;95024.00;5067875;28;20064;-73
2021/12/08 00:42:19;;;;;;;6.88;3.08;;;;;;;-1.28;77.50;95021.03;5077555;28;20109;-74
2021/12/08 00:44:46;;;;;;;7.57;3.60;;;;;;;-1.30;77.52;95013.31;5087907;28;20044;-74
2021/12/08 00:47:13;;;;;;;7.00;3.40;;;;;;;-1.29;77.38;95006.88;5086947;28;20048;-74
2021/12/08 00:49:40;;;;;;;5.43;3.42;;;;;;;-1.29;77.18;94995.41;5088033;28;20077;-73
2021/12/08 00:52:08;;;;;;;6.10;3.50;;;;;;;-1.32;77.30;94981.50;5087226;28;20079;-73
2021/12/08 00:54:35;;;;;;;5.38;3.38;;;;;;;-1.37;77.21;94970.88;5087907;28;20075;-73
2021/12/08 00:57:02;;;;;;;5.07;3.17;;;;;;;-1.40;77.70;94971.44;5087126;28;20051;-74
2021/12/08 00:59:28;;;;;;;6.55;3.40;;;;;;;-1.41;77.63;94969.84;5087872;28;20036;-72
2021/12/08 01:01:57;;;;;;;6.65;3.33;;;;;;;-1.41;77.60;94969.84;5087260;28;20568;-73
2021/12/08 01:04:24;;;;;;;5.72;3.08;;;;;;;-1.39;77.56;94958.88;5087500;28;20455;-73
2021/12/08 01:06:50;;;;;;;7.25;3.55;;;;;;;-1.40;77.37;94950.06;5087371;28;20055;-73
2021/12/08 01:09:18;;;;;;;5.90;3.17;;;;;;;-1.40;77.29;94939.41;5088317;28;20048;-73
2021/12/08 01:11:46;;;;;;;9.48;3.22;;;;;;;-1.41;77.31;94935.13;5091478;28;20048;-73
2021/12/08 01:14:12;;;;;;;8.18;2.97;;;;;;;-1.42;77.15;94936.19;5091297;28;20059;-73
2021/12/08 01:16:39;;;;;;;5.45;2.67;;;;;;;-1.40;77.11;94939.41;5091487;28;20054;-73
2021/12/08 01:19:05;;;;;;;6.47;2.67;;;;;;;-1.43;77.10;94945.28;5091343;28;20047;-73
2021/12/08 01:21:32;;;;;;;4.93;2.92;;;;;;;-1.39;77.18;94945.53;5091568;28;20055;-73
2021/12/08 01:23:59;;;;;;;4.82;2.33;;;;;;;-1.38;76.83;94947.91;5091321;28;20415;-73
2021/12/08 01:26:27;;;;;;;5.45;2.70;;;;;;;-1.37;76.91;94948.72;5090925;28;20051;-73
2021/12/08 01:28:56;;;;;;;3.85;2.17;;;;;;;-1.37;76.91;94952.16;5091401;28;20130;-73
2021/12/08 01:31:22;;;;;;;4.82;2.38;;;;;;;-1.38;76.79;94942.56;5091058;28;20052;-72
2021/12/08 01:33:49;;;;;;;5.28;2.65;;;;;;;-1.39;76.71;94942.84;5091254;28;20044;-73
2021/12/08 01:36:16;;;;;;;5.68;2.78;;;;;;;-1.36;76.46;94943.13;5090761;28;20505;-73
2021/12/08 01:38:43;;;;;;;3.38;2.10;;;;;;;-1.34;76.05;94948.97;5091195;28;20047;-73
2021/12/08 01:41:10;;;;;;;5.35;2.90;;;;;;;-1.34;75.96;94948.16;5090475;28;20048;-73
2021/12/08 01:43:43;;;;;;;5.65;2.47;;;;;;;-1.33;75.91;94950.56;5091150;28;20052;-73
2021/12/08 01:46:11;;;;;;;5.97;2.50;;;;;;;-1.29;75.75;94953.47;5090579;28;20058;-73
2021/12/08 01:48:41;;;;;;;7.50;2.22;;;;;;;-1.26;75.52;94949.44;5090885;28;20052;-73
2021/12/08 01:51:11;;;;;;;4.90;2.47;;;;;;;-1.27;75.51;94939.84;5090493;28;20048;-73
2021/12/08 01:53:38;;;;;;;4.32;2.42;;;;;;;-1.27;75.20;94953.19;5090847;28;20078;-73
2021/12/08 01:56:05;;;;;;;4.97;2.47;;;;;;;-1.29;75.04;94934.78;5090443;28;20052;-72
2021/12/08 01:58:32;;;;;;;3.58;2.65;;;;;;;-1.27;75.26;94932.63;5090860;28;20048;-73
2021/12/08 02:01:02;;;;;;;4.72;2.28;;;;;;;-1.25;75.37;94929.66;5090785;28;20044;-73
2021/12/08 02:03:30;;;;;;;3.38;2.20;;;;;;;-1.22;75.12;94926.44;5090914;28;20040;-73
2021/12/08 02:05:57;;;;;;;5.50;2.25;;;;;;;-1.21;75.00;94925.38;5090670;28;20048;-73
2021/12/08 02:08:24;;;;;;;4.53;2.33;;;;;;;-1.20;74.98;94922.44;5090140;28;20408;-74
2021/12/08 02:10:51;;;;;;;4.30;2.33;;;;;;;-1.18;74.72;94920.28;5090740;28;20048;-73
2021/12/08 02:13:19;;;;;;;5.28;2.30;;;;;;;-1.17;74.72;94927.19;5089952;28;20574;-73
2021/12/08 02:15:46;;;;;;;4.20;2.20;;;;;;;-1.15;74.61;94926.91;5090185;28;20123;-73
2021/12/08 02:18:16;;;;;;;3.15;2.30;;;;;;;-1.21;74.83;94930.72;5089980;28;20052;-73
2021/12/08 02:20:44;;;;;;;3.80;2.50;;;;;;;-1.21;74.74;94914.69;5089386;28;20048;-73
2021/12/08 02:23:13;;;;;;;4.78;2.83;;;;;;;-1.28;74.87;94909.66;5089870;28;20060;-72
2021/12/08 02:25:40;;;;;;;4.43;2.45;;;;;;;-1.32;75.16;94909.41;5090041;28;20044;-73
2021/12/08 02:28:09;;;;;;;4.05;2.47;;;;;;;-1.34;75.28;94906.22;5089791;28;20044;-73
2021/12/08 02:30:41;;;;;;;5.15;2.63;;;;;;;-1.35;75.17;94910.00;5090349;28;20062;-73
2021/12/08 02:47:08;;;;;;;5.45;2.70;;;;;;;-1.46;76.03;94900.47;5089824;28;20051;-73
2021/12/08 02:49:35;;;;;;;5.15;2.60;;;;;;;-1.48;76.22;94889.25;5090034;28;20818;-73
2021/12/08 02:52:03;;;;;;;6.22;2.85;;;;;;;-1.51;76.29;94889.81;5089501;28;20055;-72
2021/12/08 02:54:36;;;;;;;4.30;2.75;;;;;;;-1.49;76.28;94881.50;5089947;28;20418;-73
2021/12/08 02:57:03;;;;;;;6.53;3.08;;;;;;;-1.49;76.53;94882.31;5089141;28;20051;-72
2021/12/08 02:59:30;;;;;;;6.03;3.05;;;;;;;-1.49;77.14;94881.50;5089641;28;20047;-73
2021/12/08 03:01:56;;;;;;;4.40;2.85;;;;;;;-1.49;77.01;94887.66;5089626;28;20051;-73
2021/12/08 03:04:23;;;;;;;5.65;2.80;;;;;;;-1.45;76.93;94877.22;5089234;28;20051;-73
2021/12/08 03:06:49;;;;;;;7.05;3.05;;;;;;;-1.41;76.98;94872.91;5089480;28;20055;-73
2021/12/08 03:09:16;;;;;;;5.78;3.20;;;;;;;-1.38;76.98;94877.69;5089029;28;20404;-73
2021/12/08 03:11:44;;;;;;;7.65;3.10;;;;;;;-1.33;76.99;94881.13;5089309;28;20044;-73
2021/12/08 03:14:14;;;;;;;6.60;3.10;;;;;;;-1.30;77.08;94879.00;5089061;28;20388;-73
2021/12/08 03:16:45;;;;;;;5.93;3.08;;;;;;;-1.33;77.09;94869.66;5089250;28;20051;-73
2021/12/08 03:19:12;;;;;;;3.88;2.53;;;;;;;-1.30;77.03;94876.31;5088890;28;20051;-73
2021/12/08 03:21:39;;;;;;;7.10;3.78;;;;;;;-1.25;76.92;94881.59;5088999;28;20052;-74
2021/12/08 03:24:15;;;;;;;4.28;2.80;;;;;;;-1.21;76.78;94887.97;5088608;28;20499;-73
2021/12/08 03:26:51;;;;;;;5.72;3.03;;;;;;;-1.15;75.97;94887.69;5088935;28;20040;-73
2021/12/08 03:29:25;;;;;;;8.48;2.63;;;;;;;-1.14;76.18;94883.13;5088825;28;20513;-73
2021/12/08 03:31:54;;;;;;;6.07;2.83;;;;;;;-1.07;75.80;94894.28;5088617;28;20460;-73
2021/12/08 03:34:23;;;;;;;5.78;2.92;;;;;;;-1.07;75.37;94900.41;5088524;28;20084;-73
2021/12/08 03:36:50;;;;;;;6.22;2.60;;;;;;;-1.10;75.60;94901.00;5088505;28;20036;-74
2021/12/08 03:39:17;;;;;;;4.80;2.78;;;;;;;-1.09;75.58;94896.44;5088100;28;20127;-74
2021/12/08 03:41:46;;;;;;;4.55;2.72;;;;;;;-1.11;75.88;94899.38;5085717;28;20417;-73
2021/12/08 03:44:12;;;;;;;6.32;2.70;;;;;;;-1.02;75.92;94896.13;5088328;28;20056;-74
2021/12/08 03:46:41;;;;;;;5.55;2.63;;;;;;;-0.96;75.75;94901.13;5088363;28;20492;-73
2021/12/08 03:49:12;;;;;;;5.55;2.85;;;;;;;-0.95;75.73;94897.38;5088326;28;20052;-73
2021/12/08 03:51:40;;;;;;;6.32;2.92;;;;;;;-0.90;75.76;94893.84;5088905;28;20072;-73
2021/12/08 03:54:07;;;;;;;6.20;3.05;;;;;;;-0.84;75.63;94893.53;5088098;28;20064;-73
2021/12/08 03:56:34;;;;;;;6.55;2.85;;;;;;;-0.81;75.65;94903.66;5088587;28;20043;-73
2021/12/08 03:59:05;;;;;;;5.18;2.42;;;;;;;-0.80;75.43;94904.47;5088468;28;20392;-73
2021/12/08 04:01:32;;;;;;;6.68;2.80;;;;;;;-0.76;75.44;94904.69;5088629;28;20055;-74
2021/12/08 04:04:04;;;;;;;4.82;2.97;;;;;;;-0.71;75.34;94901.97;5088282;28;20044;-74
2021/12/08 04:06:34;;;;;;;6.43;2.47;;;;;;;-0.66;75.35;94900.06;5087865;28;20054;-73
2021/12/08 04:09:05;;;;;;;6.18;3.03;;;;;;;-0.62;75.38;94905.63;5088296;28;20047;-73
2021/12/08 04:11:32;;;;;;;5.05;2.72;;;;;;;-0.60;74.82;94903.47;5087761;28;20614;-73
2021/12/08 04:14:04;;;;;;;4.28;2.90;;;;;;;-0.55;75.03;94906.09;5088021;28;20078;-73
2021/12/08 04:16:34;;;;;;;6.17;2.70;;;;;;;-0.51;73.84;94909.81;5087905;28;20495;-73
2021/12/08 04:19:03;;;;;;;4.70;2.63;;;;;;;-0.55;73.72;94906.88;5087921;28;20499;-73
2021/12/08 04:21:32;;;;;;;6.18;3.20;;;;;;;-0.54;73.36;94905.00;5088004;28;20044;-73
2021/12/08 04:23:58;;;;;;;4.70;2.72;;;;;;;-0.50;73.66;94892.66;5087767;28;20052;-73
2021/12/08 04:26:30;;;;;;;5.30;2.45;;;;;;;-0.53;73.52;94890.56;5087615;28;20411;-73
2021/12/08 04:28:56;;;;;;;4.43;2.38;;;;;;;-0.60;73.72;94882.09;5087970;28;20074;-73
2021/12/08 04:31:27;;;;;;;4.68;2.60;;;;;;;-0.61;74.02;94875.16;5087576;28;20075;-73
2021/12/08 04:33:59;;;;;;;4.45;2.80;;;;;;;-0.59;74.21;94872.97;5088118;28;20044;-73
2021/12/08 04:36:30;;;;;;;7.15;2.78;;;;;;;-0.58;74.30;94879.91;5087719;28;20120;-73
2021/12/08 04:38:59;;;;;;;5.32;2.53;;;;;;;-0.56;74.50;94877.78;5087943;28;20062;-73
2021/12/08 04:41:34;;;;;;;5.38;2.65;;;;;;;-0.54;74.36;94880.94;5086964;28;20047;-73
2021/12/08 04:44:12;;;;;;;4.38;2.75;;;;;;;-0.54;74.28;94896.97;5087225;28;20051;-73
2021/12/08 04:46:59;;;;;;;6.07;3.03;;;;;;;-0.48;74.12;94906.53;5087343;28;20479;-73
2021/12/08 04:49:52;;;;;;;5.63;2.28;;;;;;;-0.46;73.68;94907.06;5087697;28;20491;-73
2021/12/08 04:52:28;;;;;;;4.65;2.45;;;;;;;-0.45;73.62;94906.00;5087345;28;20090;-73
2021/12/08 05:00:47;;;;;;;4.20;2.50;;;;;;;-0.32;72.58;94905.28;5087326;28;20423;-73
2021/12/08 05:03:38;;;;;;;5.47;2.22;;;;;;;-0.31;72.87;94906.91;5087307;28;20072;-73
2021/12/08 05:06:21;;;;;;;3.65;2.08;;;;;;;-0.32;73.30;94904.50;5087346;28;20457;-73
2021/12/08 05:08:52;;;;;;;4.55;2.60;;;;;;;-0.27;73.34;94907.13;5087456;28;20127;-73
2021/12/08 05:11:22;;;;;;;4.70;2.30;;;;;;;-0.28;72.77;94911.69;5086710;28;20048;-73
2021/12/08 05:13:52;;;;;;;3.65;1.90;;;;;;;-0.22;71.81;94914.28;5087601;28;20048;-73
2021/12/08 05:16:20;;;;;;;4.20;2.10;;;;;;;-0.19;71.37;94924.44;5086940;28;20064;-73
2021/12/08 05:18:51;;;;;;;3.45;1.80;;;;;;;-0.23;71.42;94934.09;5087650;28;20103;-73
2021/12/08 05:21:22;;;;;;;2.83;1.80;;;;;;;-0.25;70.84;94933.59;5086916;28;20071;-73
2021/12/08 05:23:51;;;;;;;6.88;2.05;;;;;;;-0.22;71.34;94936.50;5087345;28;20044;-73
2021/12/08 05:26:24;;;;;;;5.20;2.15;;;;;;;-0.19;71.65;94943.16;5086859;28;20048;-73
2021/12/08 05:28:51;;;;;;;3.85;2.10;;;;;;;-0.14;71.80;94943.91;5087420;28;20075;-73
2021/12/08 05:31:23;;;;;;;4.88;2.22;;;;;;;-0.12;72.07;94943.63;5086889;28;20134;-74
2021/12/08 05:33:52;;;;;;;3.40;1.80;;;;;;;-0.21;71.66;94939.97;5087466;28;20048;-74
2021/12/08 05:36:20;;;;;;;2.90;1.65;;;;;;;-0.17;71.49;94949.03;5086751;28;20060;-73
2021/12/08 05:38:47;;;;;;;4.63;1.80;;;;;;;-0.14;71.33;94953.81;5087143;28;20058;-73
2021/12/08 05:41:16;;;;;;;3.38;1.90;;;;;;;-0.12;71.02;94948.97;5086421;28;20052;-73
2021/12/08 05:43:45;;;;;;;6.75;1.98;;;;;;;-0.10;70.95;94957.53;5087358;28;20521;-73
2021/12/08 05:46:12;;;;;;;5.07;1.92;;;;;;;-0.05;70.46;94952.91;5086728;28;20051;-73
2021/12/08 05:48:39;;;;;;;2.75;1.60;;;;;;;-0.04;70.23;94949.16;5087275;28;20051;-74
2021/12/08 05:51:11;;;;;;;4.68;2.30;;;;;;;-0.05;69.70;94958.25;5086651;28;20070;-73
2021/12/08 05:53:40;;;;;;;4.10;1.88;;;;;;;-0.13;69.80;94947.38;5087175;28;20048;-73
2021/12/08 05:56:08;;;;;;;3.22;1.77;;;;;;;-0.12;70.60;94946.28;5088784;28;20075;-73
2021/12/08 05:58:35;;;;;;;2.78;1.88;;;;;;;-0.08;70.99;94953.47;5090801;28;20419;-73
2021/12/08 06:01:10;;;;;;;5.70;1.88;;;;;;;-0.12;71.42;94952.44;5090389;28;20044;-73
2021/12/08 06:03:38;;;;;;;6.00;2.17;;;;;;;-0.12;70.78;94963.13;5091105;28;20103;-73
2021/12/08 06:06:07;;;;;;;4.05;2.03;;;;;;;-0.12;70.99;94959.66;5090174;28;20048;-73
2021/12/08 06:08:33;;;;;;;6.43;2.20;;;;;;;-0.14;71.02;94964.50;5090439;28;20058;-73
2021/12/08 06:11:02;;;;;;;3.78;2.10;;;;;;;-0.13;71.14;94955.41;5089908;28;20562;-73
2021/12/08 06:13:29;;;;;;;4.82;2.40;;;;;;;-0.10;71.53;94949.50;5090395;28;20118;-73
2021/12/08 06:15:56;;;;;;;8.38;2.40;;;;;;;-0.09;71.92;94940.38;5090826;28;20117;-73
2021/12/08 06:18:25;;;;;;;3.65;2.13;;;;;;;-0.10;71.92;94939.59;5089484;28;20051;-74
2021/12/08 06:20:58;;;;;;;5.60;2.88;;;;;;;-0.06;72.18;94934.44;5097658;28;20044;-73
2021/12/08 06:23:26;;;;;;;3.83;2.90;;;;;;;-0.04;71.94;94926.94;5089795;28;20044;-73
2021/12/08 06:25:52;;;;;;;6.57;2.55;;;;;;;-0.11;72.19;94921.91;5105882;28;20677;-73
2021/12/08 06:28:19;;;;;;;4.60;2.55;;;;;;;-0.07;72.12;94928.28;5109815;28;20048;-73
2021/12/08 06:30:47;;;;;;;3.67;2.55;;;;;;;-0.03;71.91;94923.19;5110435;28;20055;-73
2021/12/08 06:33:17;;;;;;;3.63;2.30;;;;;;;-0.03;71.88;94926.66;5109889;28;20371;-73
2021/12/08 06:35:48;;;;;;;5.47;2.65;;;;;;;-0.02;72.18;94935.47;5109529;28;20044;-73
2021/12/08 06:38:17;;;;;;;5.00;2.70;;;;;;;-0.02;71.38;94940.81;5109535;28;20046;-73
2021/12/08 06:40:50;;;;;;;5.75;2.70;;;;;;;0.00;71.37;94927.97;5109964;27;20058;-73
2021/12/08 06:43:24;;;;;;;13.48;4.00;;;;;;;-0.05;71.14;94925.34;5109283;28;20054;-72
2021/12/08 06:45:53;;;;;;;7.88;3.72;;;;;;;-0.01;71.38;94926.34;5110365;28;20067;-73
2021/12/08 06:48:23;;;;;;;9.85;3.80;;;;;;;-0.03;71.41;94915.94;5109253;28;20059;-73
2021/12/08 06:50:53;;;;;;;6.70;3.08;;;;;;;0.03;70.77;94911.31;5109932;28;20059;-74
2021/12/08 06:53:22;;;;;;;10.48;3.80;;;;;;;0.04;70.83;94912.91;5109476;28;20051;-73
2021/12/08 06:55:55;;;;;;;6.90;3.10;;;;;;;0.10;70.71;94914.44;5110109;28;20040;-73
2021/12/08 06:58:26;;;;;;;6.32;2.80;;;;;;;0.10;70.40;94919.78;5109258;28;20494;-74
2021/12/08 07:01:09;;;;;;;4.00;2.67;;;;;;;0.08;70.44;94913.16;5110204;28;20055;-77
2021/12/08 07:03:45;;;;;;;6.20;2.72;;;;;;;0.07;70.46;94916.91;5109863;28;20046;-77
2021/12/08 07:06:30;;;;;;;6.93;2.38;;;;;;;0.09;70.59;94907.50;5108661;28;20063;-77
2021/12/08 07:09:00;;;;;;;6.97;2.70;;;;;;;0.06;70.38;94910.75;5109682;28;20044;-77
2021/12/08 07:11:29;;;;;;;4.95;2.78;;;;;;;0.09;70.25;94920.09;5108540;27;20050;-77
2021/12/08 07:13:57;;;;;;;5.95;2.90;;;;;;;0.01;70.64;94910.81;5109949;28;20047;-77
2021/12/08 07:16:27;;;;;;;6.18;2.30;;;;;;;-0.05;70.88;94902.06;5105538;28;20410;-76
2021/12/08 07:19:01;;;;;;;4.43;2.47;;;;;;;0.00;71.08;94906.56;5109071;28;20044;-77
2021/12/08 07:21:32;;;;;;;5.50;3.05;;;;;;;0.06;71.67;94908.09;5109170;28;20043;-77
2021/12/08 07:24:02;;;;;;;3.85;2.40;;;;;;;0.08;71.25;94913.94;5109266;28;20048;-77
2021/12/08 07:26:33;;;;;;;4.15;2.60;;;;;;;0.11;70.19;94910.69;5109055;28;20050;-77
2021/12/08 07:29:01;;;;;;;3.95;2.30;;;;;;;0.07;69.41;94911.56;5108977;28;20161;-77
2021/12/08 07:31:31;;;;;;;5.70;2.67;;;;;;;0.03;69.65;94900.63;5109184;28;20701;-76
2021/12/08 07:34:04;;;;;;;4.80;2.50;;;;;;;0.13;70.09;94905.06;5108736;28;20078;-76
2021/12/08 07:36:32;;;;;;;2.58;1.73;;;;;;;0.18;70.40;94900.44;5109064;28;20063;-77
2021/12/08 07:39:00;;;;;;;4.90;2.40;;;;;;;0.24;70.31;94915.34;5108845;28;20047;-77
2021/12/08 07:41:32;;;;;;;4.10;2.50;;;;;;;0.27;70.16;94923.91;5108132;28;20121;-76
2021/12/08 07:44:05;;;;;;;7.55;3.03;;;;;;;0.29;68.58;94919.03;5108874;28;20418;-77
2021/12/08 07:46:35;;;;;;;6.65;2.65;;;;;;;0.29;68.99;94919.03;5108832;28;20051;-76
2021/12/08 07:49:06;;;;;;;5.10;2.58;;;;;;;0.28;69.08;94912.09;5108426;28;20055;-73
2021/12/08 07:51:38;;;;;;;7.68;3.35;;;;;;;0.31;69.69;94908.81;5108003;28;20501;-76
2021/12/08 07:54:07;;;;;;;5.05;2.72;;;;;;;0.38;70.33;94920.78;5108402;28;20047;-77
2021/12/08 07:56:36;;;;;;;5.95;2.33;;;;;;;0.46;69.17;94919.34;5108526;28;20441;-76
2021/12/08 07:59:06;;;;;;;4.38;2.65;;;;;;;0.51;69.09;94921.94;5108457;28;20051;-76
2021/12/08 08:01:36;;;;;;;3.55;2.38;;;;;;;0.51;68.48;94932.66;5108718;28;20495;-76
2021/12/08 08:04:06;;;;;;;5.55;3.10;;;;;;;0.48;68.63;94922.53;5108263;28;20043;-76
2021/12/08 08:06:36;;;;;;;4.95;2.50;;;;;;;0.52;69.13;94913.63;5108144;28;20445;-76
2021/12/08 08:09:07;;;;;;;4.50;2.78;;;;;;;0.55;69.76;94917.59;5108127;28;20047;-76
2021/12/08 08:11:41;;;;;;;3.78;2.28;;;;;;;0.60;70.32;94922.91;5108519;28;20049;-78
2021/12/08 08:14:09;;;;;;;6.97;2.50;;;;;;;0.66;68.71;94919.06;5107903;28;20567;-76
2021/12/08 08:16:37;;;;;;;4.43;2.70;;;;;;;0.69;68.86;94923.03;5108463;28;20047;-76
2021/12/08 08:19:12;;;;;;;7.25;3.53;;;;;;;0.67;68.67;94917.97;5106953;28;20054;-76
2021/12/08 08:21:42;;;;;;;5.50;3.20;;;;;;;0.73;70.02;94911.47;5107699;28;20113;-77
2021/12/08 08:24:10;;;;;;;6.00;3.20;;;;;;;0.73;69.92;94919.50;5107632;28;20059;-76
2021/12/08 08:26:40;;;;;;;7.68;3.10;;;;;;;0.73;69.62;94919.50;5108117;28;20051;-77
2021/12/08 08:29:09;;;;;;;5.43;2.95;;;;;;;0.76;69.93;94908.19;5107471;28;20058;-77
2021/12/08 08:31:40;;;;;;;6.25;3.33;;;;;;;0.86;70.14;94901.09;5108024;28;20046;-76
2021/12/08 08:34:07;;;;;;;6.80;3.60;;;;;;;0.86;69.89;94890.38;5107693;28;20391;-76
2021/12/08 08:36:38;;;;;;;7.47;3.47;;;;;;;0.95;70.60;94893.97;5108030;28;20063;-77
2021/12/08 08:39:07;;;;;;;9.57;3.60;;;;;;;1.07;71.01;94888.94;5107301;28;20545;-76
2021/12/08 08:41:37;;;;;;;8.20;3.80;;;;;;;1.18;70.24;94884.22;5107519;28;20058;-77
2021/12/08 08:44:14;;;;;;;6.13;3.53;;;;;;;1.24;69.25;94881.13;5107647;28;20047;-76
2021/12/08 08:46:45;;;;;;;8.40;4.05;;;;;;;1.20;69.21;94869.44;5107709;28;20407;-75
2021/12/08 08:49:15;;;;;;;6.00;3.60;;;;;;;1.21;69.29;94871.03;5107343;28;20052;-75
2021/12/08 08:51:45;;;;;;;7.45;3.75;;;;;;;1.33;69.40;94864.38;5108329;28;20067;-75
2021/12/08 08:54:15;;;;;;;5.38;3.33;;;;;;;1.36;68.56;94866.44;5106931;28;20082;-75
2021/12/08 08:56:45;;;;;;;4.97;3.17;;;;;;;1.42;68.59;94859.94;5107686;28;20047;-74
2021/12/08 08:59:20;;;;;;;6.55;3.30;;;;;;;1.46;68.69;94860.91;5107529;28;20048;-74
2021/12/08 09:01:53;;;;;;;6.72;3.95;;;;;;;1.52;68.53;94865.13;5107775;28;20059;-74
2021/12/08 09:04:31;;;;;;;8.07;4.10;;;;;;;1.57;68.77;94862.34;5107756;28;20477;-75
2021/12/08 09:07:02;;;;;;;6.90;4.03;;;;;;;1.56;68.66;94861.50;5107640;28;20047;-74
2021/12/08 09:09:32;;;;;;;6.93;3.80;;;;;;;1.61;68.97;94871.34;5107230;28;20044;-74
2021/12/08 09:12:03;;;;;;;7.63;4.18;;;;;;;1.53;68.88;94878.22;5107354;28;20055;-74
2021/12/08 09:14:36;;;;;;;7.88;4.45;;;;;;;1.53;69.71;94866.69;5107745;28;20039;-74
2021/12/08 09:17:13;;;;;;;7.53;3.70;;;;;;;1.57;70.40;94862.34;5107221;28;20533;-74
2021/12/08 09:19:48;;;;;;;7.90;3.85;;;;;;;1.54;69.60;94868.28;5108034;28;20418;-74
2021/12/08 09:22:21;;;;;;;7.72;3.55;;;;;;;1.53;69.63;94858.66;5107117;28;20043;-74
2021/12/08 09:24:51;;;;;;;5.18;3.03;;;;;;;1.56;69.64;94860.72;5107243;28;20043;-75
2021/12/08 09:27:25;;;;;;;9.38;4.22;;;;;;;1.61;70.10;94867.88;5107012;28;20126;-74
2021/12/08 09:29:57;;;;;;;11.57;4.82;;;;;;;1.55;69.73;94859.13;5108051;28;20564;-74
2021/12/08 09:32:31;;;;;;;8.02;3.83;;;;;;;1.54;69.31;94858.34;5110933;28;20048;-74
2021/12/08 09:35:01;;;;;;;8.20;4.45;;;;;;;1.56;69.55;94860.72;5111334;28;20559;-74
2021/12/08 09:37:32;;;;;;;6.80;3.97;;;;;;;1.56;69.61;94847.31;5111234;28;20046;-74
2021/12/08 09:40:05;;;;;;;6.03;3.75;;;;;;;1.57;69.79;94846.22;5110596;27;20529;-75
2021/12/08 09:42:39;;;;;;;7.25;3.80;;;;;;;1.59;69.81;94849.41;5111044;28;20055;-75
2021/12/08 09:45:13;;;;;;;6.38;3.72;;;;;;;1.62;69.89;94842.63;5110922;28;20079;-74
2021/12/08 09:47:39;;;;;;;6.82;3.40;;;;;;;1.66;70.01;94839.06;5110715;28;20044;-74
2021/12/08 09:50:09;;;;;;;7.47;3.83;;;;;;;1.69;69.39;94817.00;5110560;28;20542;-76
2021/12/08 09:52:36;;;;;;;8.82;3.97;;;;;;;1.73;69.59;94823.38;5111177;28;20735;-74
2021/12/08 09:55:04;;;;;;;6.97;3.78;;;;;;;1.75;69.48;94807.75;5110491;28;20134;-74
2021/12/08 09:57:31;;;;;;;7.05;3.70;;;;;;;1.79;70.40;94824.84;5111188;28;20051;-74
2021/12/08 09:59:57;;;;;;;5.65;3.70;;;;;;;1.82;70.24;94826.91;5111558;28;20555;-74
2021/12/08 10:02:32;;;;;;;5.63;3.38;;;;;;;1.85;69.54;94819.38;5110775;28;20051;-74
2021/12/08 10:05:00;;;;;;;7.00;3.60;;;;;;;1.85;69.69;94819.38;5111251;28;20047;-74
2021/12/08 10:07:27;;;;;;;7.13;3.95;;;;;;;1.86;70.13;94820.97;5110013;28;20043;-76
2021/12/08 10:09:54;;;;;;;5.93;3.85;;;;;;;1.85;70.29;94819.38;5109798;27;20055;-74
2021/12/08 10:12:21;;;;;;;7.25;4.05;;;;;;;1.86;70.71;94826.34;5110310;28;20055;-75
2021/12/08 10:14:50;;;;;;;5.18;3.80;;;;;;;1.89;70.09;94823.06;5111114;28;20046;-74
2021/12/08 10:17:18;;;;;;;5.95;3.65;;;;;;;1.89;69.05;94815.81;5109530;28;20049;-74
2021/12/08 10:20:04;;;;;;;7.45;3.78;;;;;;;1.91;69.54;94808.22;5110052;28;20054;-75
2021/12/08 10:22:30;;;;;;;7.28;3.95;;;;;;;1.96;69.56;94799.28;5109514;28;20154;-74
2021/12/08 10:25:07;;;;;;;7.72;4.10;;;;;;;2.05;70.32;94781.38;5110567;28;20044;-74
2021/12/08 10:27:53;;;;;;;6.35;3.83;;;;;;;2.08;70.48;94761.97;5109958;28;20043;-74
2021/12/08 10:30:21;;;;;;;6.22;3.85;;;;;;;2.16;70.76;94757.78;5109497;28;20054;-74
2021/12/08 10:32:49;;;;;;;8.25;4.30;;;;;;;2.21;71.26;94752.28;5110411;28;20051;-74
2021/12/08 10:35:48;;;;;;;10.23;4.15;;;;;;;2.24;70.28;94733.66;5109736;28;20395;-74
2021/12/08 10:38:16;;;;;;;7.85;4.40;;;;;;;2.33;69.68;94731.84;5109593;28;20051;-75
2021/12/08 10:41:04;;;;;;;7.13;4.00;;;;;;;2.45;69.44;94731.28;5109822;28;20063;-74
2021/12/08 10:43:31;;;;;;;13.43;4.22;;;;;;;2.50;68.56;94728.47;5109157;28;20059;-74
2021/12/08 10:46:03;;;;;;;9.63;3.65;;;;;;;2.57;67.44;94728.06;5110424;28;20052;-74
2021/12/08 10:48:35;;;;;;;6.13;3.58;;;;;;;2.59;66.49;94736.59;5109709;28;20035;-75
2021/12/08 10:56:37;;;;;;;11.70;4.82;;;;;;;2.82;64.63;94735.47;5109863;28;20062;-74
2021/12/08 10:59:04;;;;;;;7.57;4.47;;;;;;;2.87;65.25;94721.91;5108570;28;20129;-74
2021/12/08 11:01:31;;;;;;;8.32;4.53;;;;;;;2.96;66.06;94718.44;5110148;28;20051;-75
2021/12/08 11:04:01;;;;;;;11.80;4.57;;;;;;;3.02;66.64;94717.22;5110071;28;20050;-74
2021/12/08 11:06:32;;;;;;;11.38;4.82;;;;;;;3.13;66.35;94710.44;5109748;28;20047;-74
2021/12/08 11:08:58;;;;;;;11.70;3.50;;;;;;;3.21;64.99;94703.53;5109975;28;20043;-74
2021/12/08 11:11:29;;;;;;;21.35;4.22;;;;;;;3.27;66.17;94713.81;5123553;27;20054;-74
2021/12/08 11:13:57;;;;;;;7.15;4.57;;;;;;;3.29;66.43;94711.63;5130435;27;20069;-74
2021/12/08 11:16:26;;;;;;;11.52;4.85;;;;;;;3.26;65.94;94706.88;5129611;27;20054;-74
2021/12/08 11:18:59;;;;;;;8.13;4.32;;;;;;;3.19;63.86;94717.28;5112488;27;20532;-74
2021/12/08 11:21:32;;;;;;;8.45;4.30;;;;;;;3.12;63.50;94716.94;5109273;28;20089;-74
2021/12/08 11:24:02;;;;;;;7.72;4.45;;;;;;;3.10;64.44;94719.94;5109218;28;20131;-74
2021/12/08 11:26:33;;;;;;;8.20;4.25;;;;;;;3.14;65.20;94728.19;5109243;28;20047;-74
2021/12/08 11:29:03;;;;;;;6.72;3.55;;;;;;;3.08;62.04;94729.41;5109558;28;20127;-74
2021/12/08 11:31:34;;;;;;;14.30;4.40;;;;;;;2.98;63.10;94721.63;5109074;28;20047;-74
2021/12/08 11:34:04;;;;;;;12.52;4.00;;;;;;;3.02;63.63;94727.97;5108569;28;20056;-74
2021/12/08 11:36:33;;;;;;;9.23;3.60;;;;;;;3.03;64.82;94724.97;5108738;28;20040;-74
2021/12/08 11:39:07;;;;;;;8.50;4.10;;;;;;;3.02;64.77;94717.22;5109084;28;20077;-74
2021/12/08 11:41:36;;;;;;;8.00;4.32;;;;;;;3.04;64.39;94699.69;5108674;27;20741;-74
2021/12/08 11:44:07;;;;;;;10.77;4.15;;;;;;;3.06;63.85;94696.66;5108527;28;20150;-73
2021/12/08 11:46:39;;;;;;;7.30;4.40;;;;;;;3.04;64.02;94685.44;5109061;28;20055;-74
2021/12/08 11:49:07;;;;;;;9.13;4.60;;;;;;;3.05;64.67;94692.41;5108451;28;20135;-74
2021/12/08 11:51:50;;;;;;;9.30;3.75;;;;;;;3.03;65.38;94691.94;5109193;28;20176;-74
2021/12/08 11:54:29;;;;;;;7.32;4.05;;;;;;;3.00;65.79;94690.63;5108051;28;20673;-74
2021/12/08 11:57:03;;;;;;;5.85;4.10;;;;;;;2.99;66.13;94689.06;5108574;28;20040;-75
2021/12/08 11:59:29;;;;;;;7.97;4.60;;;;;;;2.96;66.09;94681.59;5108456;28;20043;-75
2021/12/08 12:01:56;;;;;;;11.45;4.65;;;;;;;2.97;66.37;94680.50;5108554;28;20043;-75
2021/12/08 12:04:23;;;;;;;10.48;4.43;;;;;;;2.94;67.16;94683.03;5108321;28;20052;-74
2021/12/08 12:06:49;;;;;;;7.53;4.22;;;;;;;2.97;68.10;94682.38;5108344;28;20051;-74
2021/12/08 12:09:16;;;;;;;12.82;4.80;;;;;;;2.98;67.89;94689.38;5108034;28;20051;-74
2021/12/08 12:11:43;;;;;;;10.88;4.35;;;;;;;2.97;67.15;94677.00;5106724;27;20047;-74
2021/12/08 12:14:10;;;;;;;8.93;5.32;;;;;;;3.00;67.00;94676.41;5107787;28;20059;-74
2021/12/08 12:16:36;;;;;;;11.88;4.85;;;;;;;3.03;66.99;94670.41;5108005;28;20048;-75